sensor_id;sensor_type;location;lat;lon;timestamp;P1;durP1;ratioP1;P2;durP2;ratioP2
60700;SDS011;46541;49.894;10.886;2023-05-02T00:01:13;11.00;;;7.90;;
60700;SDS011;46541;49.894;10.886;2023-05-02T00:03:40;11.60;;;8.38;;
60700;SDS011;46541;49.894;10.886;2023-05-02T00:06:09;11.07;;;8.75;;
60700;SDS011;46541;49.894;10.886;2023-05-02T00:08:36;20.38;;;10.88;;
60700;SDS011;46541;49.894;10.886;2023-05-02T00:11:03;15.02;;;9.40;;
60700;SDS011;46541;49.894;10.886;2023-05-02T00:13:30;15.93;;;8.85;;
60700;SDS011;46541;49.894;10.886;2023-05-02T00:15:57;10.18;;;8.10;;
60700;SDS011;46541;49.894;10.886;2023-05-02T00:18:23;12.45;;;9.73;;
60700;SDS011;46541;49.894;10.886;2023-05-02T00:20:50;15.30;;;9.50;;
60700;SDS011;46541;49.894;10.886;2023-05-02T00:23:17;11.13;;;8.13;;
60700;SDS011;46541;49.894;10.886;2023-05-02T00:25:44;15.60;;;8.82;;
60700;SDS011;46541;49.894;10.886;2023-05-02T00:28:11;14.25;;;9.07;;
60700;SDS011;46541;49.894;10.886;2023-05-02T00:30:45;12.60;;;9.02;;
60700;SDS011;46541;49.894;10.886;2023-05-02T00:33:12;12.75;;;9.82;;
60700;SDS011;46541;49.894;10.886;2023-05-02T00:35:40;11.48;;;8.73;;
60700;SDS011;46541;49.894;10.886;2023-05-02T00:38:07;13.88;;;9.70;;
60700;SDS011;46541;49.894;10.886;2023-05-02T00:40:44;13.45;;;9.40;;
60700;SDS011;46541;49.894;10.886;2023-05-02T00:43:11;13.55;;;10.20;;
60700;SDS011;46541;49.894;10.886;2023-05-02T00:45:38;15.90;;;9.70;;
60700;SDS011;46541;49.894;10.886;2023-05-02T00:48:07;14.35;;;9.48;;
60700;SDS011;46541;49.894;10.886;2023-05-02T00:50:38;15.10;;;10.35;;
60700;SDS011;46541;49.894;10.886;2023-05-02T00:53:06;15.10;;;11.23;;
60700;SDS011;46541;49.894;10.886;2023-05-02T00:55:35;13.50;;;9.80;;
60700;SDS011;46541;49.894;10.886;2023-05-02T00:58:04;17.08;;;9.63;;
60700;SDS011;46541;49.894;10.886;2023-05-02T01:03:18;13.98;;;9.85;;
60700;SDS011;46541;49.894;10.886;2023-05-02T01:12:03;14.88;;;11.05;;
60700;SDS011;46541;49.894;10.886;2023-05-02T01:14:44;15.63;;;10.00;;
60700;SDS011;46541;49.894;10.886;2023-05-02T01:17:15;14.32;;;10.77;;
60700;SDS011;46541;49.894;10.886;2023-05-02T01:19:50;14.25;;;10.50;;
60700;SDS011;46541;49.894;10.886;2023-05-02T01:22:23;12.75;;;9.35;;
60700;SDS011;46541;49.894;10.886;2023-05-02T01:25:03;14.50;;;9.93;;
60700;SDS011;46541;49.894;10.886;2023-05-02T01:27:56;14.20;;;9.35;;
60700;SDS011;46541;49.894;10.886;2023-05-02T01:30:27;12.18;;;8.88;;
60700;SDS011;46541;49.894;10.886;2023-05-02T01:32:56;14.20;;;9.13;;
60700;SDS011;46541;49.894;10.886;2023-05-02T01:35:24;11.45;;;8.65;;
60700;SDS011;46541;49.894;10.886;2023-05-02T01:37:53;17.75;;;10.43;;
60700;SDS011;46541;49.894;10.886;2023-05-02T01:40:22;13.63;;;10.45;;
60700;SDS011;46541;49.894;10.886;2023-05-02T01:42:51;14.70;;;10.20;;
60700;SDS011;46541;49.894;10.886;2023-05-02T01:45:20;13.57;;;9.65;;
60700;SDS011;46541;49.894;10.886;2023-05-02T01:47:48;15.80;;;9.95;;
60700;SDS011;46541;49.894;10.886;2023-05-02T01:50:17;12.65;;;9.63;;
60700;SDS011;46541;49.894;10.886;2023-05-02T01:52:48;18.08;;;10.43;;
60700;SDS011;46541;49.894;10.886;2023-05-02T01:55:18;16.52;;;10.50;;
60700;SDS011;46541;49.894;10.886;2023-05-02T01:57:45;17.65;;;11.20;;
60700;SDS011;46541;49.894;10.886;2023-05-02T02:00:15;14.13;;;9.50;;
60700;SDS011;46541;49.894;10.886;2023-05-02T02:02:44;13.68;;;9.38;;
60700;SDS011;46541;49.894;10.886;2023-05-02T02:05:12;14.00;;;9.50;;
60700;SDS011;46541;49.894;10.886;2023-05-02T02:07:39;12.70;;;9.30;;
60700;SDS011;46541;49.894;10.886;2023-05-02T02:10:06;14.25;;;9.68;;
60700;SDS011;46541;49.894;10.886;2023-05-02T02:15:29;15.90;;;10.32;;
60700;SDS011;46541;49.894;10.886;2023-05-02T02:18:01;14.68;;;10.95;;
60700;SDS011;46541;49.894;10.886;2023-05-02T02:20:34;13.60;;;9.95;;
60700;SDS011;46541;49.894;10.886;2023-05-02T02:23:02;16.27;;;10.15;;
60700;SDS011;46541;49.894;10.886;2023-05-02T02:25:33;13.23;;;9.70;;
60700;SDS011;46541;49.894;10.886;2023-05-02T02:28:01;14.93;;;9.55;;
60700;SDS011;46541;49.894;10.886;2023-05-02T02:30:27;19.50;;;10.32;;
60700;SDS011;46541;49.894;10.886;2023-05-02T02:32:54;13.20;;;9.57;;
60700;SDS011;46541;49.894;10.886;2023-05-02T02:35:21;15.18;;;10.40;;
60700;SDS011;46541;49.894;10.886;2023-05-02T02:38:01;14.77;;;9.57;;
60700;SDS011;46541;49.894;10.886;2023-05-02T02:43:32;11.73;;;9.98;;
60700;SDS011;46541;49.894;10.886;2023-05-02T02:51:57;12.27;;;9.45;;
60700;SDS011;46541;49.894;10.886;2023-05-02T02:54:57;12.95;;;9.23;;
60700;SDS011;46541;49.894;10.886;2023-05-02T03:00:40;12.60;;;9.18;;
60700;SDS011;46541;49.894;10.886;2023-05-02T03:02:49;13.57;;;10.15;;
60700;SDS011;46541;49.894;10.886;2023-05-02T03:05:18;13.80;;;9.52;;
60700;SDS011;46541;49.894;10.886;2023-05-02T03:07:47;14.07;;;9.82;;
60700;SDS011;46541;49.894;10.886;2023-05-02T03:10:14;14.27;;;8.95;;
60700;SDS011;46541;49.894;10.886;2023-05-02T03:12:41;14.93;;;9.77;;
60700;SDS011;46541;49.894;10.886;2023-05-02T03:17:55;17.70;;;10.98;;
60700;SDS011;46541;49.894;10.886;2023-05-02T03:20:22;19.55;;;10.93;;
60700;SDS011;46541;49.894;10.886;2023-05-02T03:22:49;19.38;;;11.20;;
60700;SDS011;46541;49.894;10.886;2023-05-02T03:25:15;17.45;;;11.30;;
60700;SDS011;46541;49.894;10.886;2023-05-02T03:27:42;19.40;;;11.32;;
60700;SDS011;46541;49.894;10.886;2023-05-02T03:30:09;14.65;;;10.27;;
60700;SDS011;46541;49.894;10.886;2023-05-02T03:32:35;14.45;;;9.57;;
60700;SDS011;46541;49.894;10.886;2023-05-02T03:35:02;16.13;;;10.13;;
60700;SDS011;46541;49.894;10.886;2023-05-02T03:37:29;14.30;;;9.65;;
60700;SDS011;46541;49.894;10.886;2023-05-02T03:39:56;14.20;;;10.30;;
60700;SDS011;46541;49.894;10.886;2023-05-02T03:42:23;14.38;;;9.68;;
60700;SDS011;46541;49.894;10.886;2023-05-02T03:44:52;14.30;;;8.85;;
60700;SDS011;46541;49.894;10.886;2023-05-02T03:47:19;12.95;;;9.40;;
60700;SDS011;46541;49.894;10.886;2023-05-02T03:49:46;14.48;;;8.20;;
60700;SDS011;46541;49.894;10.886;2023-05-02T03:52:12;14.52;;;9.65;;
60700;SDS011;46541;49.894;10.886;2023-05-02T03:54:39;11.27;;;8.55;;
60700;SDS011;46541;49.894;10.886;2023-05-02T03:57:06;12.32;;;8.60;;
60700;SDS011;46541;49.894;10.886;2023-05-02T03:59:33;13.35;;;9.35;;
60700;SDS011;46541;49.894;10.886;2023-05-02T04:02:00;9.77;;;7.75;;
60700;SDS011;46541;49.894;10.886;2023-05-02T04:04:27;10.85;;;8.68;;
60700;SDS011;46541;49.894;10.886;2023-05-02T04:06:54;13.60;;;9.45;;
60700;SDS011;46541;49.894;10.886;2023-05-02T04:09:20;12.45;;;9.30;;
60700;SDS011;46541;49.894;10.886;2023-05-02T04:11:50;12.60;;;8.95;;
60700;SDS011;46541;49.894;10.886;2023-05-02T04:14:17;12.48;;;8.63;;
60700;SDS011;46541;49.894;10.886;2023-05-02T04:16:50;10.88;;;8.20;;
60700;SDS011;46541;49.894;10.886;2023-05-02T04:19:17;12.65;;;9.10;;
60700;SDS011;46541;49.894;10.886;2023-05-02T04:21:44;12.75;;;9.02;;
60700;SDS011;46541;49.894;10.886;2023-05-02T04:24:12;14.02;;;8.70;;
60700;SDS011;46541;49.894;10.886;2023-05-02T04:26:38;13.30;;;9.93;;
60700;SDS011;46541;49.894;10.886;2023-05-02T04:29:06;11.85;;;8.55;;
60700;SDS011;46541;49.894;10.886;2023-05-02T04:31:32;14.50;;;9.02;;
60700;SDS011;46541;49.894;10.886;2023-05-02T04:34:00;13.25;;;9.05;;
60700;SDS011;46541;49.894;10.886;2023-05-02T04:36:27;11.02;;;8.65;;
60700;SDS011;46541;49.894;10.886;2023-05-02T04:38:53;12.63;;;9.55;;
60700;SDS011;46541;49.894;10.886;2023-05-02T04:41:20;12.82;;;9.45;;
60700;SDS011;46541;49.894;10.886;2023-05-02T04:43:48;14.38;;;10.27;;
60700;SDS011;46541;49.894;10.886;2023-05-02T04:46:15;13.40;;;9.73;;
60700;SDS011;46541;49.894;10.886;2023-05-02T04:48:43;13.82;;;9.60;;
60700;SDS011;46541;49.894;10.886;2023-05-02T04:51:10;12.35;;;9.60;;
60700;SDS011;46541;49.894;10.886;2023-05-02T04:53:36;14.82;;;9.82;;
60700;SDS011;46541;49.894;10.886;2023-05-02T04:56:03;16.08;;;11.20;;
60700;SDS011;46541;49.894;10.886;2023-05-02T04:58:31;12.75;;;8.95;;
60700;SDS011;46541;49.894;10.886;2023-05-02T05:00:57;13.50;;;10.05;;
60700;SDS011;46541;49.894;10.886;2023-05-02T05:03:24;15.57;;;10.73;;
60700;SDS011;46541;49.894;10.886;2023-05-02T05:05:51;13.43;;;10.43;;
60700;SDS011;46541;49.894;10.886;2023-05-02T05:08:18;15.25;;;10.68;;
60700;SDS011;46541;49.894;10.886;2023-05-02T05:10:44;15.73;;;10.45;;
60700;SDS011;46541;49.894;10.886;2023-05-02T05:13:11;14.13;;;9.57;;
60700;SDS011;46541;49.894;10.886;2023-05-02T05:15:39;14.13;;;10.15;;
60700;SDS011;46541;49.894;10.886;2023-05-02T05:18:05;16.67;;;11.23;;
60700;SDS011;46541;49.894;10.886;2023-05-02T05:20:32;15.65;;;10.15;;
60700;SDS011;46541;49.894;10.886;2023-05-02T05:22:59;18.00;;;12.10;;
60700;SDS011;46541;49.894;10.886;2023-05-02T05:25:25;19.55;;;12.10;;
60700;SDS011;46541;49.894;10.886;2023-05-02T05:27:52;14.98;;;9.95;;
60700;SDS011;46541;49.894;10.886;2023-05-02T05:30:21;15.77;;;10.68;;
60700;SDS011;46541;49.894;10.886;2023-05-02T05:32:47;13.60;;;10.63;;
60700;SDS011;46541;49.894;10.886;2023-05-02T05:35:14;14.98;;;11.10;;
60700;SDS011;46541;49.894;10.886;2023-05-02T05:37:41;13.45;;;10.18;;
60700;SDS011;46541;49.894;10.886;2023-05-02T05:40:09;20.02;;;11.68;;
60700;SDS011;46541;49.894;10.886;2023-05-02T05:42:35;16.15;;;12.63;;
60700;SDS011;46541;49.894;10.886;2023-05-02T05:45:02;21.13;;;11.43;;
60700;SDS011;46541;49.894;10.886;2023-05-02T05:47:29;18.45;;;11.43;;
60700;SDS011;46541;49.894;10.886;2023-05-02T05:49:56;18.20;;;11.82;;
60700;SDS011;46541;49.894;10.886;2023-05-02T05:52:23;18.48;;;11.40;;
60700;SDS011;46541;49.894;10.886;2023-05-02T05:54:53;16.23;;;11.40;;
60700;SDS011;46541;49.894;10.886;2023-05-02T05:57:23;18.48;;;11.02;;
60700;SDS011;46541;49.894;10.886;2023-05-02T05:59:50;20.67;;;12.07;;
60700;SDS011;46541;49.894;10.886;2023-05-02T06:02:17;17.10;;;11.10;;
60700;SDS011;46541;49.894;10.886;2023-05-02T06:04:45;19.52;;;11.68;;
60700;SDS011;46541;49.894;10.886;2023-05-02T06:07:12;19.67;;;11.98;;
60700;SDS011;46541;49.894;10.886;2023-05-02T06:09:38;17.45;;;11.23;;
60700;SDS011;46541;49.894;10.886;2023-05-02T06:12:05;19.23;;;10.90;;
60700;SDS011;46541;49.894;10.886;2023-05-02T06:14:32;19.10;;;11.63;;
60700;SDS011;46541;49.894;10.886;2023-05-02T06:16:59;17.55;;;11.38;;
60700;SDS011;46541;49.894;10.886;2023-05-02T06:19:26;21.42;;;11.52;;
60700;SDS011;46541;49.894;10.886;2023-05-02T06:21:52;17.45;;;11.18;;
60700;SDS011;46541;49.894;10.886;2023-05-02T06:24:19;19.08;;;11.38;;
60700;SDS011;46541;49.894;10.886;2023-05-02T06:26:46;22.55;;;11.00;;
60700;SDS011;46541;49.894;10.886;2023-05-02T06:29:12;23.15;;;12.48;;
60700;SDS011;46541;49.894;10.886;2023-05-02T06:31:39;22.45;;;12.15;;
60700;SDS011;46541;49.894;10.886;2023-05-02T06:34:06;18.20;;;11.95;;
60700;SDS011;46541;49.894;10.886;2023-05-02T06:36:33;18.50;;;11.23;;
60700;SDS011;46541;49.894;10.886;2023-05-02T06:38:59;21.05;;;13.38;;
60700;SDS011;46541;49.894;10.886;2023-05-02T06:41:26;23.70;;;11.35;;
60700;SDS011;46541;49.894;10.886;2023-05-02T06:43:53;18.67;;;10.93;;
60700;SDS011;46541;49.894;10.886;2023-05-02T06:46:19;20.50;;;10.65;;
60700;SDS011;46541;49.894;10.886;2023-05-02T06:48:47;15.63;;;10.68;;
60700;SDS011;46541;49.894;10.886;2023-05-02T06:51:13;18.70;;;11.18;;
60700;SDS011;46541;49.894;10.886;2023-05-02T06:53:40;22.15;;;13.02;;
60700;SDS011;46541;49.894;10.886;2023-05-02T06:56:07;19.17;;;12.40;;
60700;SDS011;46541;49.894;10.886;2023-05-02T06:58:34;17.10;;;10.80;;
60700;SDS011;46541;49.894;10.886;2023-05-02T07:01:00;19.23;;;12.65;;
60700;SDS011;46541;49.894;10.886;2023-05-02T07:03:27;14.07;;;10.95;;
60700;SDS011;46541;49.894;10.886;2023-05-02T07:05:54;16.42;;;11.07;;
60700;SDS011;46541;49.894;10.886;2023-05-02T07:08:21;15.90;;;11.20;;
60700;SDS011;46541;49.894;10.886;2023-05-02T07:10:49;14.43;;;10.05;;
60700;SDS011;46541;49.894;10.886;2023-05-02T07:13:16;15.70;;;9.95;;
60700;SDS011;46541;49.894;10.886;2023-05-02T07:15:42;13.88;;;11.10;;
60700;SDS011;46541;49.894;10.886;2023-05-02T07:18:09;19.35;;;12.30;;
60700;SDS011;46541;49.894;10.886;2023-05-02T07:20:36;16.65;;;11.75;;
60700;SDS011;46541;49.894;10.886;2023-05-02T07:23:04;14.98;;;10.32;;
60700;SDS011;46541;49.894;10.886;2023-05-02T07:25:30;19.17;;;10.65;;
60700;SDS011;46541;49.894;10.886;2023-05-02T07:27:57;15.82;;;11.05;;
60700;SDS011;46541;49.894;10.886;2023-05-02T07:30:24;17.00;;;11.00;;
60700;SDS011;46541;49.894;10.886;2023-05-02T07:32:50;13.95;;;10.43;;
60700;SDS011;46541;49.894;10.886;2023-05-02T07:35:17;16.92;;;11.70;;
60700;SDS011;46541;49.894;10.886;2023-05-02T07:37:44;17.15;;;10.60;;
60700;SDS011;46541;49.894;10.886;2023-05-02T07:40:11;19.13;;;10.50;;
60700;SDS011;46541;49.894;10.886;2023-05-02T07:42:38;19.92;;;11.90;;
60700;SDS011;46541;49.894;10.886;2023-05-02T07:45:07;12.05;;;9.88;;
60700;SDS011;46541;49.894;10.886;2023-05-02T07:47:34;16.90;;;10.40;;
60700;SDS011;46541;49.894;10.886;2023-05-02T07:50:01;15.85;;;10.70;;
60700;SDS011;46541;49.894;10.886;2023-05-02T07:52:31;15.85;;;10.05;;
60700;SDS011;46541;49.894;10.886;2023-05-02T07:54:58;13.30;;;10.18;;
60700;SDS011;46541;49.894;10.886;2023-05-02T07:57:25;13.68;;;9.13;;
60700;SDS011;46541;49.894;10.886;2023-05-02T07:59:52;15.85;;;9.98;;
60700;SDS011;46541;49.894;10.886;2023-05-02T08:02:18;13.50;;;9.48;;
60700;SDS011;46541;49.894;10.886;2023-05-02T08:04:46;12.93;;;9.70;;
60700;SDS011;46541;49.894;10.886;2023-05-02T08:07:14;12.75;;;8.77;;
60700;SDS011;46541;49.894;10.886;2023-05-02T08:09:41;13.77;;;10.38;;
60700;SDS011;46541;49.894;10.886;2023-05-02T08:12:08;12.73;;;9.35;;
60700;SDS011;46541;49.894;10.886;2023-05-02T08:14:35;14.95;;;9.88;;
60700;SDS011;46541;49.894;10.886;2023-05-02T08:17:01;14.52;;;9.10;;
60700;SDS011;46541;49.894;10.886;2023-05-02T08:19:28;11.68;;;8.70;;
60700;SDS011;46541;49.894;10.886;2023-05-02T08:21:55;14.10;;;9.23;;
60700;SDS011;46541;49.894;10.886;2023-05-02T08:24:22;14.52;;;9.38;;
60700;SDS011;46541;49.894;10.886;2023-05-02T08:26:48;12.65;;;8.77;;
60700;SDS011;46541;49.894;10.886;2023-05-02T08:29:16;20.88;;;14.35;;
60700;SDS011;46541;49.894;10.886;2023-05-02T08:31:42;11.18;;;9.20;;
60700;SDS011;46541;49.894;10.886;2023-05-02T08:34:09;12.80;;;8.18;;
60700;SDS011;46541;49.894;10.886;2023-05-02T08:36:36;9.38;;;7.55;;
60700;SDS011;46541;49.894;10.886;2023-05-02T08:39:03;9.50;;;7.85;;
60700;SDS011;46541;49.894;10.886;2023-05-02T08:41:29;12.45;;;7.47;;
60700;SDS011;46541;49.894;10.886;2023-05-02T08:43:56;9.80;;;7.45;;
60700;SDS011;46541;49.894;10.886;2023-05-02T08:46:25;10.60;;;7.82;;
60700;SDS011;46541;49.894;10.886;2023-05-02T08:48:54;12.23;;;8.07;;
60700;SDS011;46541;49.894;10.886;2023-05-02T08:51:24;13.15;;;7.72;;
60700;SDS011;46541;49.894;10.886;2023-05-02T08:53:54;12.45;;;9.10;;
60700;SDS011;46541;49.894;10.886;2023-05-02T08:56:22;10.20;;;7.80;;
60700;SDS011;46541;49.894;10.886;2023-05-02T08:58:50;9.85;;;6.65;;
60700;SDS011;46541;49.894;10.886;2023-05-02T09:01:17;10.27;;;7.53;;
60700;SDS011;46541;49.894;10.886;2023-05-02T09:03:47;10.23;;;7.43;;
60700;SDS011;46541;49.894;10.886;2023-05-02T09:06:16;9.73;;;6.95;;
60700;SDS011;46541;49.894;10.886;2023-05-02T09:08:44;10.82;;;7.60;;
60700;SDS011;46541;49.894;10.886;2023-05-02T09:11:14;10.77;;;7.40;;
60700;SDS011;46541;49.894;10.886;2023-05-02T09:13:45;13.18;;;8.05;;
60700;SDS011;46541;49.894;10.886;2023-05-02T09:16:18;9.02;;;6.88;;
60700;SDS011;46541;49.894;10.886;2023-05-02T09:18:54;9.40;;;7.30;;
60700;SDS011;46541;49.894;10.886;2023-05-02T09:21:23;15.85;;;8.70;;
60700;SDS011;46541;49.894;10.886;2023-05-02T09:23:53;10.68;;;7.18;;
60700;SDS011;46541;49.894;10.886;2023-05-02T09:26:21;16.67;;;9.50;;
60700;SDS011;46541;49.894;10.886;2023-05-02T09:28:58;16.48;;;8.90;;
60700;SDS011;46541;49.894;10.886;2023-05-02T09:31:33;10.43;;;6.82;;
60700;SDS011;46541;49.894;10.886;2023-05-02T09:34:09;10.30;;;7.20;;
60700;SDS011;46541;49.894;10.886;2023-05-02T09:36:45;8.00;;;6.35;;
60700;SDS011;46541;49.894;10.886;2023-05-02T09:39:17;7.97;;;6.10;;
60700;SDS011;46541;49.894;10.886;2023-05-02T09:41:45;6.05;;;4.90;;
60700;SDS011;46541;49.894;10.886;2023-05-02T09:44:14;6.93;;;5.22;;
60700;SDS011;46541;49.894;10.886;2023-05-02T09:46:44;7.95;;;6.00;;
60700;SDS011;46541;49.894;10.886;2023-05-02T09:49:13;9.70;;;5.55;;
60700;SDS011;46541;49.894;10.886;2023-05-02T09:51:40;12.93;;;6.03;;
60700;SDS011;46541;49.894;10.886;2023-05-02T09:54:09;9.32;;;5.18;;
60700;SDS011;46541;49.894;10.886;2023-05-02T09:56:54;7.05;;;4.43;;
60700;SDS011;46541;49.894;10.886;2023-05-02T09:59:22;12.57;;;5.43;;
60700;SDS011;46541;49.894;10.886;2023-05-02T10:01:53;10.00;;;5.88;;
60700;SDS011;46541;49.894;10.886;2023-05-02T10:04:25;7.27;;;6.37;;
60700;SDS011;46541;49.894;10.886;2023-05-02T10:06:53;7.65;;;4.22;;
60700;SDS011;46541;49.894;10.886;2023-05-02T10:09:20;7.82;;;4.82;;
60700;SDS011;46541;49.894;10.886;2023-05-02T10:11:50;7.75;;;5.05;;
60700;SDS011;46541;49.894;10.886;2023-05-02T10:14:22;11.60;;;6.78;;
60700;SDS011;46541;49.894;10.886;2023-05-02T10:17:04;10.35;;;7.47;;
60700;SDS011;46541;49.894;10.886;2023-05-02T10:19:38;7.65;;;4.43;;
60700;SDS011;46541;49.894;10.886;2023-05-02T10:22:13;5.97;;;3.80;;
60700;SDS011;46541;49.894;10.886;2023-05-02T10:24:45;7.22;;;4.10;;
60700;SDS011;46541;49.894;10.886;2023-05-02T10:27:14;8.25;;;5.60;;
60700;SDS011;46541;49.894;10.886;2023-05-02T10:29:41;11.88;;;6.57;;
60700;SDS011;46541;49.894;10.886;2023-05-02T10:32:09;9.07;;;7.25;;
60700;SDS011;46541;49.894;10.886;2023-05-02T10:34:36;6.70;;;5.88;;
60700;SDS011;46541;49.894;10.886;2023-05-02T10:37:05;9.75;;;6.93;;
60700;SDS011;46541;49.894;10.886;2023-05-02T10:39:32;8.75;;;4.65;;
60700;SDS011;46541;49.894;10.886;2023-05-02T10:41:59;6.15;;;4.90;;
60700;SDS011;46541;49.894;10.886;2023-05-02T10:44:31;5.72;;;4.32;;
60700;SDS011;46541;49.894;10.886;2023-05-02T11:00:26;10.07;;;5.82;;
60700;SDS011;46541;49.894;10.886;2023-05-02T11:02:55;8.15;;;5.10;;
60700;SDS011;46541;49.894;10.886;2023-05-02T11:05:22;13.50;;;9.43;;
60700;SDS011;46541;49.894;10.886;2023-05-02T11:10:45;9.02;;;5.07;;
60700;SDS011;46541;49.894;10.886;2023-05-02T11:13:12;8.57;;;4.82;;
60700;SDS011;46541;49.894;10.886;2023-05-02T11:18:06;8.95;;;5.22;;
60700;SDS011;46541;49.894;10.886;2023-05-02T11:20:41;9.68;;;5.28;;
60700;SDS011;46541;49.894;10.886;2023-05-02T11:25:45;10.30;;;5.78;;
60700;SDS011;46541;49.894;10.886;2023-05-02T11:31:03;12.02;;;6.40;;
60700;SDS011;46541;49.894;10.886;2023-05-02T11:33:30;7.78;;;5.72;;
60700;SDS011;46541;49.894;10.886;2023-05-02T11:35:57;13.38;;;8.35;;
60700;SDS011;46541;49.894;10.886;2023-05-02T11:38:25;8.43;;;6.53;;
60700;SDS011;46541;49.894;10.886;2023-05-02T11:40:59;7.68;;;5.57;;
60700;SDS011;46541;49.894;10.886;2023-05-02T11:43:28;9.10;;;5.38;;
60700;SDS011;46541;49.894;10.886;2023-05-02T11:45:57;7.32;;;5.30;;
60700;SDS011;46541;49.894;10.886;2023-05-02T11:48:27;9.73;;;5.97;;
60700;SDS011;46541;49.894;10.886;2023-05-02T11:50:55;8.68;;;5.78;;
60700;SDS011;46541;49.894;10.886;2023-05-02T11:53:24;22.40;;;14.70;;
60700;SDS011;46541;49.894;10.886;2023-05-02T11:55:52;33.20;;;19.65;;
60700;SDS011;46541;49.894;10.886;2023-05-02T11:58:27;10.90;;;7.65;;
60700;SDS011;46541;49.894;10.886;2023-05-02T12:00:55;7.22;;;5.75;;
60700;SDS011;46541;49.894;10.886;2023-05-02T12:03:29;11.52;;;5.90;;
60700;SDS011;46541;49.894;10.886;2023-05-02T12:06:06;8.87;;;6.03;;
60700;SDS011;46541;49.894;10.886;2023-05-02T12:08:38;11.48;;;7.50;;
60700;SDS011;46541;49.894;10.886;2023-05-02T12:11:05;9.07;;;6.45;;
60700;SDS011;46541;49.894;10.886;2023-05-02T12:13:32;10.73;;;7.93;;
60700;SDS011;46541;49.894;10.886;2023-05-02T12:15:59;15.50;;;9.77;;
60700;SDS011;46541;49.894;10.886;2023-05-02T12:18:26;12.95;;;9.80;;
60700;SDS011;46541;49.894;10.886;2023-05-02T12:20:54;12.48;;;9.13;;
60700;SDS011;46541;49.894;10.886;2023-05-02T12:23:22;10.73;;;7.05;;
60700;SDS011;46541;49.894;10.886;2023-05-02T12:25:51;7.82;;;6.38;;
60700;SDS011;46541;49.894;10.886;2023-05-02T12:28:18;9.43;;;6.88;;
60700;SDS011;46541;49.894;10.886;2023-05-02T12:30:46;9.32;;;6.63;;
60700;SDS011;46541;49.894;10.886;2023-05-02T12:33:14;5.53;;;4.07;;
60700;SDS011;46541;49.894;10.886;2023-05-02T12:35:42;7.75;;;3.90;;
60700;SDS011;46541;49.894;10.886;2023-05-02T12:38:17;6.18;;;3.75;;
60700;SDS011;46541;49.894;10.886;2023-05-02T12:40:49;6.57;;;3.90;;
60700;SDS011;46541;49.894;10.886;2023-05-02T12:43:22;7.60;;;3.97;;
60700;SDS011;46541;49.894;10.886;2023-05-02T12:45:49;9.93;;;3.95;;
60700;SDS011;46541;49.894;10.886;2023-05-02T12:48:33;13.40;;;8.13;;
60700;SDS011;46541;49.894;10.886;2023-05-02T12:51:00;5.70;;;2.90;;
60700;SDS011;46541;49.894;10.886;2023-05-02T12:53:37;9.30;;;5.68;;
60700;SDS011;46541;49.894;10.886;2023-05-02T12:56:05;11.38;;;5.32;;
60700;SDS011;46541;49.894;10.886;2023-05-02T12:58:43;5.88;;;3.53;;
60700;SDS011;46541;49.894;10.886;2023-05-02T13:01:12;5.35;;;3.22;;
60700;SDS011;46541;49.894;10.886;2023-05-02T13:03:40;5.60;;;3.15;;
60700;SDS011;46541;49.894;10.886;2023-05-02T13:06:08;5.32;;;3.42;;
60700;SDS011;46541;49.894;10.886;2023-05-02T13:08:36;4.55;;;3.42;;
60700;SDS011;46541;49.894;10.886;2023-05-02T13:11:03;5.35;;;2.83;;
60700;SDS011;46541;49.894;10.886;2023-05-02T13:13:30;2.67;;;2.30;;
60700;SDS011;46541;49.894;10.886;2023-05-02T13:15:57;6.75;;;3.63;;
60700;SDS011;46541;49.894;10.886;2023-05-02T13:18:24;5.93;;;3.22;;
60700;SDS011;46541;49.894;10.886;2023-05-02T13:20:53;4.72;;;3.80;;
60700;SDS011;46541;49.894;10.886;2023-05-02T13:23:20;3.50;;;3.20;;
60700;SDS011;46541;49.894;10.886;2023-05-02T13:25:46;4.70;;;3.22;;
60700;SDS011;46541;49.894;10.886;2023-05-02T13:28:13;4.93;;;4.28;;
60700;SDS011;46541;49.894;10.886;2023-05-02T13:30:40;5.47;;;4.45;;
60700;SDS011;46541;49.894;10.886;2023-05-02T13:33:07;6.20;;;4.72;;
60700;SDS011;46541;49.894;10.886;2023-05-02T13:35:34;5.50;;;4.57;;
60700;SDS011;46541;49.894;10.886;2023-05-02T13:38:01;6.53;;;5.05;;
60700;SDS011;46541;49.894;10.886;2023-05-02T13:40:28;8.07;;;5.93;;
60700;SDS011;46541;49.894;10.886;2023-05-02T13:42:55;8.82;;;4.78;;
60700;SDS011;46541;49.894;10.886;2023-05-02T13:45:22;6.95;;;5.28;;
60700;SDS011;46541;49.894;10.886;2023-05-02T13:47:49;11.20;;;6.43;;
60700;SDS011;46541;49.894;10.886;2023-05-02T13:50:16;29.42;;;7.20;;
60700;SDS011;46541;49.894;10.886;2023-05-02T13:52:42;12.95;;;6.03;;
60700;SDS011;46541;49.894;10.886;2023-05-02T13:55:13;13.02;;;5.85;;
60700;SDS011;46541;49.894;10.886;2023-05-02T13:57:40;9.63;;;5.70;;
60700;SDS011;46541;49.894;10.886;2023-05-02T14:00:07;7.00;;;5.10;;
60700;SDS011;46541;49.894;10.886;2023-05-02T14:02:35;8.15;;;6.50;;
60700;SDS011;46541;49.894;10.886;2023-05-02T14:05:02;5.88;;;3.70;;
60700;SDS011;46541;49.894;10.886;2023-05-02T14:07:29;5.55;;;4.68;;
60700;SDS011;46541;49.894;10.886;2023-05-02T14:09:56;5.60;;;4.00;;
60700;SDS011;46541;49.894;10.886;2023-05-02T14:12:22;4.85;;;3.97;;
60700;SDS011;46541;49.894;10.886;2023-05-02T14:14:49;6.57;;;5.60;;
60700;SDS011;46541;49.894;10.886;2023-05-02T14:17:16;6.43;;;4.97;;
60700;SDS011;46541;49.894;10.886;2023-05-02T14:19:42;7.68;;;4.72;;
60700;SDS011;46541;49.894;10.886;2023-05-02T14:22:09;6.30;;;4.75;;
60700;SDS011;46541;49.894;10.886;2023-05-02T14:24:36;6.90;;;4.93;;
60700;SDS011;46541;49.894;10.886;2023-05-02T14:27:02;6.65;;;4.90;;
60700;SDS011;46541;49.894;10.886;2023-05-02T14:29:29;6.47;;;4.57;;
60700;SDS011;46541;49.894;10.886;2023-05-02T14:31:56;5.40;;;4.35;;
60700;SDS011;46541;49.894;10.886;2023-05-02T14:34:23;5.28;;;3.95;;
60700;SDS011;46541;49.894;10.886;2023-05-02T14:36:52;7.78;;;4.75;;
60700;SDS011;46541;49.894;10.886;2023-05-02T14:39:18;7.45;;;4.47;;
60700;SDS011;46541;49.894;10.886;2023-05-02T14:41:45;6.78;;;4.13;;
60700;SDS011;46541;49.894;10.886;2023-05-02T14:44:12;6.82;;;4.18;;
60700;SDS011;46541;49.894;10.886;2023-05-02T14:46:39;6.60;;;4.20;;
60700;SDS011;46541;49.894;10.886;2023-05-02T14:49:06;9.73;;;4.38;;
60700;SDS011;46541;49.894;10.886;2023-05-02T14:51:33;7.03;;;4.93;;
60700;SDS011;46541;49.894;10.886;2023-05-02T14:54:02;6.30;;;4.20;;
60700;SDS011;46541;49.894;10.886;2023-05-02T14:56:29;7.95;;;4.43;;
60700;SDS011;46541;49.894;10.886;2023-05-02T14:58:56;4.20;;;3.80;;
60700;SDS011;46541;49.894;10.886;2023-05-02T15:01:23;6.28;;;4.22;;
60700;SDS011;46541;49.894;10.886;2023-05-02T15:03:50;8.57;;;4.57;;
60700;SDS011;46541;49.894;10.886;2023-05-02T15:06:32;6.38;;;4.38;;
60700;SDS011;46541;49.894;10.886;2023-05-02T15:09:01;5.72;;;4.45;;
60700;SDS011;46541;49.894;10.886;2023-05-02T15:11:27;6.15;;;4.53;;
60700;SDS011;46541;49.894;10.886;2023-05-02T15:13:54;5.82;;;3.60;;
60700;SDS011;46541;49.894;10.886;2023-05-02T15:16:24;5.32;;;4.05;;
60700;SDS011;46541;49.894;10.886;2023-05-02T15:18:52;5.35;;;3.55;;